Time;durP1;ratioP1;P1;durP2;ratioP2;P2;SDS_P1;SDS_P2;PMS_P1;PMS_P2;Temp;Humidity;BMP_temperature;BMP_pressure;BME280_temperature;BME280_humidity;BME280_pressure;Samples;Min_cycle;Max_cycle;Signal;HPM_P1;HPM_P2
2022/11/13 00:00:10;;;;;;;17.13;11.87;;;;;;;6.60;100.00;98680.59;18423397;32;20090;-63
2022/11/13 00:10:13;;;;;;;17.03;10.83;;;;;;;6.56;100.00;98668.59;18397492;32;20075;-63
2022/11/13 00:20:17;;;;;;;15.43;10.67;;;;;;;6.47;100.00;98647.59;18422792;32;20458;-63
2022/11/13 00:30:19;;;;;;;14.27;10.00;;;;;;;6.38;100.00;98644.37;18433254;32;20102;-63
2022/11/13 00:40:22;;;;;;;14.80;9.13;;;;;;;6.31;100.00;98639.03;18357380;32;20057;-63
2022/11/13 00:50:24;;;;;;;15.23;9.70;;;;;;;6.17;100.00;98627.59;18357594;32;20070;-63
2022/11/13 01:00:27;;;;;;;15.03;9.20;;;;;;;6.09;100.00;98620.59;18357361;32;20568;-62
2022/11/13 01:10:30;;;;;;;11.83;8.07;;;;;;;6.05;100.00;98618.59;18376881;32;20060;-62
2022/11/13 01:20:33;;;;;;;11.93;8.17;;;;;;;6.03;100.00;98626.84;18494353;32;20049;-62
2022/11/13 01:30:38;;;;;;;13.53;8.40;;;;;;;6.03;100.00;98608.06;18356290;32;20088;-63
2022/11/13 01:40:47;;;;;;;12.53;8.07;;;;;;;5.99;100.00;98598.81;18364608;32;20132;-62
2022/11/13 01:50:49;;;;;;;14.80;9.53;;;;;;;5.91;100.00;98573.00;18367258;32;20417;-62
2022/11/13 02:00:51;;;;;;;14.23;10.03;;;;;;;5.82;100.00;98562.75;18388557;32;20441;-63
2022/11/13 02:10:53;;;;;;;16.67;10.10;;;;;;;5.84;100.00;98552.59;18502865;32;20057;-63
2022/11/13 02:21:02;;;;;;;17.97;11.13;;;;;;;5.92;100.00;98549.66;18504274;32;20076;-63
2022/11/13 02:31:07;;;;;;;16.27;10.63;;;;;;;6.01;100.00;98534.97;18503047;32;20373;-62
2022/11/13 02:41:09;;;;;;;14.40;9.50;;;;;;;6.10;100.00;98514.03;18501682;32;20057;-62
2022/11/13 02:51:13;;;;;;;14.23;9.20;;;;;;;6.14;100.00;98504.50;18501572;32;20090;-63
2022/11/13 03:01:15;;;;;;;18.47;10.90;;;;;;;6.19;100.00;98490.41;18519672;32;20096;-62
2022/11/13 03:11:17;;;;;;;14.83;10.00;;;;;;;6.19;100.00;98490.41;18565463;32;20072;-63
2022/11/13 03:21:20;;;;;;;17.23;10.07;;;;;;;6.18;100.00;98478.00;18565232;32;20053;-63
2022/11/13 03:31:22;;;;;;;16.03;10.37;;;;;;;6.18;100.00;98472.62;18564704;32;20132;-62
2022/11/13 03:41:24;;;;;;;13.97;9.50;;;;;;;6.23;100.00;98475.50;18558677;32;20470;-62
2022/11/13 03:51:27;;;;;;;14.10;8.33;;;;;;;6.23;100.00;98467.44;18548033;32;20048;-63
2022/11/13 04:01:29;;;;;;;15.83;10.00;;;;;;;6.25;100.00;98471.53;18561863;32;20390;-63
2022/11/13 04:11:32;;;;;;;15.93;10.97;;;;;;;6.30;100.00;98472.75;18561909;32;20075;-63
2022/11/13 04:21:34;;;;;;;15.37;10.43;;;;;;;6.27;100.00;98468.63;18561937;32;20064;-63
2022/11/13 04:31:37;;;;;;;14.43;9.10;;;;;;;6.26;100.00;98457.06;18561310;32;20115;-63
2022/11/13 04:52:00;;;;;;;13.17;9.10;;;;;;;6.26;100.00;98440.13;18560480;32;20075;-63
2022/11/13 05:02:02;;;;;;;13.40;9.10;;;;;;;6.25;100.00;98425.88;18407951;32;20355;-63
2022/11/13 05:12:06;;;;;;;15.30;10.27;;;;;;;6.28;100.00;98409.31;18425393;32;20104;-62
2022/11/13 05:22:09;;;;;;;15.27;9.43;;;;;;;6.25;100.00;98393.66;18432976;32;20073;-63
2022/11/13 05:32:11;;;;;;;15.17;9.03;;;;;;;6.22;100.00;98377.16;18536031;32;20089;-63
2022/11/13 05:42:13;;;;;;;12.83;8.23;;;;;;;6.23;100.00;98376.13;18571085;32;20063;-63
2022/11/13 05:52:16;;;;;;;12.67;8.77;;;;;;;6.18;100.00;98370.59;18570510;32;20466;-62
2022/11/13 06:02:18;;;;;;;11.70;7.77;;;;;;;6.13;100.00;98354.34;18555661;32;20092;-62
2022/11/13 06:12:20;;;;;;;12.47;7.90;;;;;;;6.13;100.00;98354.34;18569368;32;20045;-62
2022/11/13 06:22:22;;;;;;;12.53;7.90;;;;;;;6.10;100.00;98347.56;18429121;32;20057;-62
2022/11/13 06:32:25;;;;;;;11.00;7.57;;;;;;;6.15;100.00;98354.94;18429153;32;20140;-63
2022/11/13 06:42:27;;;;;;;11.33;6.70;;;;;;;6.14;100.00;98346.06;18428838;32;20081;-62
2022/11/13 06:52:29;;;;;;;9.23;6.33;;;;;;;6.17;100.00;98326.81;18447833;32;20067;-63
2022/11/13 07:02:31;;;;;;;9.40;6.30;;;;;;;6.19;100.00;98329.28;18565786;32;20141;-63
2022/11/13 07:12:34;;;;;;;10.93;7.03;;;;;;;6.20;100.00;98318.31;18565687;32;20044;-63
2022/11/13 07:22:36;;;;;;;9.30;6.17;;;;;;;6.22;100.00;98318.06;18564804;32;20048;-63
2022/11/13 07:32:38;;;;;;;8.73;5.90;;;;;;;6.25;100.00;98317.66;18563972;32;20095;-62
2022/11/13 07:42:41;;;;;;;9.43;6.40;;;;;;;6.33;100.00;98319.19;18563728;32;20049;-63
2022/11/13 07:52:43;;;;;;;9.90;5.87;;;;;;;6.38;100.00;98319.34;18563243;32;20053;-63
2022/11/13 08:02:46;;;;;;;6.80;5.37;;;;;;;6.43;100.00;98320.28;18548232;32;20063;-63
2022/11/13 08:13:01;;;;;;;9.40;5.90;;;;;;;6.44;100.00;98311.19;18555258;32;20388;-63
2022/11/13 08:23:04;;;;;;;7.93;5.70;;;;;;;6.49;100.00;98307.81;18562067;32;20052;-63
2022/11/13 08:33:07;;;;;;;8.77;6.20;;;;;;;6.58;100.00;98300.28;18561151;32;20455;-62
2022/11/13 08:43:09;;;;;;;6.80;4.90;;;;;;;6.69;100.00;98288.72;18560409;32;20115;-62
2022/11/13 08:53:12;;;;;;;9.00;5.47;;;;;;;6.93;100.00;98270.78;18408256;32;20065;-63
2022/11/13 09:03:14;;;;;;;7.10;4.93;;;;;;;7.08;100.00;98256.88;18408146;32;20076;-63
2022/11/13 09:13:17;;;;;;;10.07;6.37;;;;;;;7.28;100.00;98250.34;18420689;32;20057;-63
2022/11/13 09:23:19;;;;;;;8.87;5.50;;;;;;;7.35;100.00;98242.97;18478570;32;20098;-62
2022/11/13 09:33:22;;;;;;;9.53;5.73;;;;;;;7.25;100.00;98246.25;18494157;32;20091;-63
2022/11/13 09:43:27;;;;;;;9.23;5.83;;;;;;;7.25;100.00;98240.03;18356029;32;20141;-63
2022/11/13 09:53:33;;;;;;;;;;;;;;;7.20;100.00;98221.91;18343316;32;20066;-62
2022/11/13 10:03:43;;;;;;;6.90;5.03;;;;;;;7.27;100.00;98206.47;18366112;32;20337;-63
2022/11/13 10:14:15;;;;;;;9.23;5.17;;;;;;;7.37;100.00;98203.22;18482334;32;20395;-62
2022/11/13 10:24:26;;;;;;;6.87;4.93;;;;;;;7.54;100.00;98208.69;18365706;32;20137;-62
2022/11/13 10:34:32;;;;;;;9.70;5.27;;;;;;;7.86;100.00;98181.31;18365020;32;20594;-63
2022/11/13 10:44:34;;;;;;;6.50;4.47;;;;;;;8.07;100.00;98192.47;18364659;32;20061;-62
2022/11/13 10:54:37;;;;;;;7.57;4.90;;;;;;;7.92;100.00;98191.12;18463349;32;20045;-63
2022/11/13 11:04:39;;;;;;;5.50;3.60;;;;;;;7.95;100.00;98171.00;18540601;32;20079;-62
2022/11/13 11:15:00;;;;;;;6.80;4.57;;;;;;;7.97;100.00;98161.63;18550305;32;20373;-63
2022/11/13 11:25:16;;;;;;;6.53;4.40;;;;;;;8.11;100.00;98137.06;18564852;32;20049;-62
2022/11/13 11:35:37;;;;;;;7.72;4.10;;;;;;;8.17;100.00;98117.25;18564374;32;20061;-63
2022/11/13 11:45:45;;;;;;;6.50;3.77;;;;;;;8.18;100.00;98102.72;18563775;32;20105;-62
2022/11/13 11:56:09;;;;;;;4.87;3.10;;;;;;;8.02;100.00;98112.41;18548778;32;20411;-63
2022/11/13 12:06:31;;;;;;;5.13;3.77;;;;;;;7.98;100.00;98095.91;18562075;32;20099;-62
2022/11/13 12:16:53;;;;;;;3.93;2.97;;;;;;;7.90;100.00;98080.16;18561979;32;20067;-62
2022/11/13 12:27:20;;;;;;;4.53;2.80;;;;;;;7.93;100.00;98068.91;18561240;32;20319;-62
2022/11/13 12:38:05;;;;;;;3.93;2.53;;;;;;;7.99;100.00;98064.44;18560909;32;20052;-62
2022/11/13 12:48:21;;;;;;;4.10;2.53;;;;;;;8.09;100.00;98028.78;18560416;32;20445;-62
2022/11/13 12:58:31;;;;;;;3.77;2.87;;;;;;;8.11;100.00;98024.78;18546331;32;20041;-62
2022/11/13 13:08:49;;;;;;;4.50;3.30;;;;;;;8.14;100.00;98005.41;18559819;32;20131;-63
2022/11/13 13:18:52;;;;;;;5.93;3.90;;;;;;;8.09;100.00;97996.44;18559545;32;20036;-62
2022/11/13 13:29:00;;;;;;;6.20;4.10;;;;;;;8.03;100.00;97989.34;18545374;32;20357;-63
2022/11/13 13:39:21;;;;;;;4.90;3.47;;;;;;;8.04;100.00;97981.00;18567858;32;20061;-62
2022/11/13 13:49:26;;;;;;;5.87;4.07;;;;;;;8.08;100.00;97963.28;18569520;32;20097;-63
2022/11/13 13:59:33;;;;;;;;;;;;;;;8.11;100.00;97956.59;18570147;32;20059;-63
2022/11/13 14:09:35;;;;;;;5.63;3.47;;;;;;;8.03;100.00;97949.78;18569939;32;20356;-63
2022/11/13 14:19:38;;;;;;;5.67;4.07;;;;;;;7.94;100.00;97935.09;18568738;32;20045;-62
2022/11/13 14:29:50;;;;;;;5.60;3.67;;;;;;;7.95;100.00;97960.97;18568417;32;20053;-62
2022/11/13 14:39:54;;;;;;;5.17;3.47;;;;;;;7.78;100.00;97952.88;18567590;32;20052;-62
2022/11/13 14:50:27;;;;;;;4.68;3.05;;;;;;;7.67;100.00;97967.22;18566604;32;20505;-62
2022/11/13 15:00:38;;;;;;;4.43;3.13;;;;;;;7.59;100.00;97971.13;18565513;32;20109;-62
2022/11/13 15:10:42;;;;;;;4.37;2.93;;;;;;;7.50;100.00;97959.16;18551871;32;20053;-62
2022/11/13 15:20:45;;;;;;;5.13;3.50;;;;;;;7.46;100.00;97956.94;18565467;32;20094;-62
2022/11/13 15:30:48;;;;;;;5.17;3.40;;;;;;;7.39;100.00;97934.75;18558084;32;20368;-63
2022/11/13 15:40:52;;;;;;;4.47;3.13;;;;;;;7.36;100.00;97927.16;18562815;32;20138;-62
2022/11/13 15:50:56;;;;;;;5.20;3.53;;;;;;;7.26;100.00;97937.75;18563089;32;20056;-63
2022/11/13 16:00:59;;;;;;;5.97;3.93;;;;;;;7.15;100.00;97925.97;18561716;32;20067;-63
2022/11/13 16:11:02;;;;;;;4.63;3.40;;;;;;;7.05;100.00;97929.31;18562158;32;20057;-62
2022/11/13 16:21:05;;;;;;;6.23;3.87;;;;;;;6.98;100.00;97912.50;18409835;32;20228;-63
2022/11/13 16:31:08;;;;;;;5.77;4.00;;;;;;;6.89;100.00;97890.59;18422320;32;20053;-62
2022/11/13 16:41:12;;;;;;;6.90;4.80;;;;;;;6.86;100.00;97892.94;18421906;32;20081;-63
2022/11/13 16:51:15;;;;;;;6.20;4.23;;;;;;;6.84;100.00;97895.03;18442218;32;20052;-63
2022/11/13 17:01:21;;;;;;;6.70;4.17;;;;;;;6.77;100.00;97904.06;18559980;32;20064;-63
2022/11/13 17:11:26;;;;;;;7.60;4.20;;;;;;;6.76;100.00;97904.31;18570449;32;20052;-62
2022/11/13 17:21:29;;;;;;;6.60;4.60;;;;;;;6.70;100.00;97898.03;18538911;32;20053;-62
2022/11/13 17:31:31;;;;;;;7.30;5.03;;;;;;;6.71;100.00;97894.25;18572164;32;20077;-62
2022/11/13 17:41:36;;;;;;;6.30;4.60;;;;;;;6.69;100.00;97888.31;18571360;32;20048;-62
2022/11/13 17:51:38;;;;;;;9.03;4.60;;;;;;;6.66;100.00;97894.19;18571195;32;20365;-62
2022/11/13 18:01:41;;;;;;;6.87;5.07;;;;;;;6.63;100.00;97891.94;18569920;32;20431;-62
2022/11/13 18:11:44;;;;;;;7.77;4.83;;;;;;;6.57;100.00;97906.34;18555699;32;20045;-63
2022/11/13 18:21:46;;;;;;;8.50;4.97;;;;;;;6.54;100.00;97901.47;18554011;32;20067;-63
2022/11/13 18:31:48;;;;;;;6.93;4.87;;;;;;;6.51;100.00;97880.41;18568430;32;20049;-62
2022/11/13 18:41:52;;;;;;;6.77;4.93;;;;;;;6.42;100.00;97880.78;18553765;32;20397;-63
2022/11/13 18:51:54;;;;;;;8.37;6.00;;;;;;;6.43;100.00;97884.31;18567303;32;20049;-63
2022/11/13 19:01:57;;;;;;;10.27;5.43;;;;;;;6.44;100.00;97905.56;18566325;32;20063;-63
2022/11/13 19:11:59;;;;;;;7.37;5.30;;;;;;;6.26;100.00;97908.38;18559579;32;20495;-63
2022/11/13 19:22:02;;;;;;;9.27;5.80;;;;;;;6.17;100.00;97891.84;18565249;32;20368;-62
2022/11/13 19:32:04;;;;;;;8.57;5.23;;;;;;;6.00;100.00;97883.69;18563910;32;20053;-62
2022/11/13 19:42:07;;;;;;;10.20;5.67;;;;;;;5.60;100.00;97884.34;18564200;32;20437;-63
2022/11/13 19:52:09;;;;;;;8.13;5.40;;;;;;;5.24;100.00;97876.25;18563589;32;20416;-63
2022/11/13 20:02:13;;;;;;;8.83;6.20;;;;;;;4.99;100.00;97865.72;18562615;32;20060;-62
2022/11/13 20:12:15;;;;;;;10.27;5.47;;;;;;;4.79;100.00;97852.59;18562068;32;20071;-62
2022/11/13 20:22:18;;;;;;;6.87;5.40;;;;;;;4.66;100.00;97863.50;18561861;32;20052;-63
2022/11/13 20:32:21;;;;;;;9.00;6.10;;;;;;;4.56;100.00;97864.03;18561371;32;20084;-63
2022/11/13 20:42:24;;;;;;;9.00;6.47;;;;;;;4.39;100.00;97861.19;18560806;32;20067;-63
2022/11/13 20:52:27;;;;;;;8.70;6.63;;;;;;;4.28;100.00;97843.22;18560649;32;20063;-62
2022/11/13 21:02:29;;;;;;;8.27;5.83;;;;;;;4.22;100.00;97812.78;18546269;32;20049;-62
2022/11/13 21:12:32;;;;;;;8.77;6.10;;;;;;;4.01;100.00;97798.03;18560148;32;20053;-62
2022/11/13 21:22:34;;;;;;;9.57;5.80;;;;;;;3.81;100.00;97825.84;18546070;32;20380;-62
2022/11/13 21:32:37;;;;;;;9.57;6.33;;;;;;;3.63;100.00;97817.78;18559529;32;20349;-62
2022/11/13 21:42:40;;;;;;;8.33;6.07;;;;;;;3.53;100.00;97834.34;18559295;32;20053;-63
2022/11/13 21:52:42;;;;;;;9.00;5.87;;;;;;;3.45;100.00;97818.56;18547632;32;20044;-63
2022/11/13 22:02:45;;;;;;;7.67;5.30;;;;;;;3.41;100.00;97785.31;18569913;32;20164;-63
2022/11/13 22:12:47;;;;;;;8.63;5.67;;;;;;;3.35;100.00;97766.44;18569622;32;20037;-62
2022/11/13 22:22:50;;;;;;;10.47;6.03;;;;;;;3.18;100.00;97743.97;18569155;32;20385;-63
2022/11/13 22:32:52;;;;;;;8.80;6.23;;;;;;;3.04;100.00;97749.47;18429368;32;20084;-63
2022/11/13 22:42:55;;;;;;;8.57;6.17;;;;;;;2.89;100.00;97740.97;18428824;32;20068;-63
2022/11/13 22:52:57;;;;;;;7.27;4.90;;;;;;;2.78;100.00;97718.47;18428361;32;20421;-64
2022/11/13 23:02:59;;;;;;;9.13;5.53;;;;;;;2.63;100.00;97712.63;18437931;32;20053;-63
2022/11/13 23:13:02;;;;;;;8.70;5.37;;;;;;;2.43;100.00;97713.59;18501191;32;20052;-65
2022/11/13 23:23:04;;;;;;;7.30;5.20;;;;;;;2.25;100.00;97710.84;18426242;32;20065;-63
2022/11/13 23:33:07;;;;;;;7.63;5.13;;;;;;;2.20;100.00;97703.50;18425954;32;20075;-63
2022/11/13 23:43:10;;;;;;;7.13;4.97;;;;;;;2.24;100.00;97683.34;18425105;32;20440;-63
2022/11/13 23:53:13;;;;;;;9.43;5.67;;;;;;;2.23;100.00;97660.37;18482800;32;20480;-63
